sensor_id;sensor_type;location;lat;lon;timestamp;P1;durP1;ratioP1;P2;durP2;ratioP2
7273;SDS011;3678;60.002;17.846;2022-10-26T00:01:39;2.33;;;1.67;;
7273;SDS011;3678;60.002;17.846;2022-10-26T00:04:07;1.60;;;1.50;;
7273;SDS011;3678;60.002;17.846;2022-10-26T00:06:35;1.70;;;1.57;;
7273;SDS011;3678;60.002;17.846;2022-10-26T00:09:02;2.63;;;1.67;;
7273;SDS011;3678;60.002;17.846;2022-10-26T00:11:29;1.67;;;1.40;;
7273;SDS011;3678;60.002;17.846;2022-10-26T00:13:56;3.10;;;1.70;;
7273;SDS011;3678;60.002;17.846;2022-10-26T00:16:24;1.60;;;1.30;;
7273;SDS011;3678;60.002;17.846;2022-10-26T00:18:52;4.13;;;1.50;;
7273;SDS011;3678;60.002;17.846;2022-10-26T00:21:20;1.50;;;1.40;;
7273;SDS011;3678;60.002;17.846;2022-10-26T00:23:47;1.10;;;1.00;;
7273;SDS011;3678;60.002;17.846;2022-10-26T00:26:16;1.50;;;1.10;;
7273;SDS011;3678;60.002;17.846;2022-10-26T00:28:43;2.03;;;1.10;;
7273;SDS011;3678;60.002;17.846;2022-10-26T00:31:11;1.60;;;1.30;;
7273;SDS011;3678;60.002;17.846;2022-10-26T00:33:38;1.20;;;1.10;;
7273;SDS011;3678;60.002;17.846;2022-10-26T00:36:06;1.20;;;1.00;;
7273;SDS011;3678;60.002;17.846;2022-10-26T00:38:35;1.10;;;0.97;;
7273;SDS011;3678;60.002;17.846;2022-10-26T00:41:03;1.07;;;0.90;;
7273;SDS011;3678;60.002;17.846;2022-10-26T00:43:37;0.83;;;0.70;;
7273;SDS011;3678;60.002;17.846;2022-10-26T00:46:05;0.70;;;0.70;;
7273;SDS011;3678;60.002;17.846;2022-10-26T00:48:34;0.67;;;0.67;;
7273;SDS011;3678;60.002;17.846;2022-10-26T00:51:04;0.60;;;0.60;;
7273;SDS011;3678;60.002;17.846;2022-10-26T00:53:32;0.70;;;0.60;;
7273;SDS011;3678;60.002;17.846;2022-10-26T00:56:00;0.80;;;0.60;;
7273;SDS011;3678;60.002;17.846;2022-10-26T00:58:28;0.70;;;0.70;;
7273;SDS011;3678;60.002;17.846;2022-10-26T01:00:55;0.85;;;0.60;;
7273;SDS011;3678;60.002;17.846;2022-10-26T01:03:22;2.30;;;0.60;;
7273;SDS011;3678;60.002;17.846;2022-10-26T01:05:52;0.73;;;0.70;;
7273;SDS011;3678;60.002;17.846;2022-10-26T01:08:19;0.90;;;0.90;;
7273;SDS011;3678;60.002;17.846;2022-10-26T01:10:47;0.70;;;0.70;;
7273;SDS011;3678;60.002;17.846;2022-10-26T01:13:16;0.80;;;0.70;;
7273;SDS011;3678;60.002;17.846;2022-10-26T01:15:46;0.70;;;0.70;;
7273;SDS011;3678;60.002;17.846;2022-10-26T01:18:15;0.63;;;0.60;;
7273;SDS011;3678;60.002;17.846;2022-10-26T01:23:43;0.40;;;0.40;;
7273;SDS011;3678;60.002;17.846;2022-10-26T01:26:23;0.97;;;0.60;;
7273;SDS011;3678;60.002;17.846;2022-10-26T01:29:00;0.63;;;0.50;;
7273;SDS011;3678;60.002;17.846;2022-10-26T01:31:36;2.60;;;0.50;;
7273;SDS011;3678;60.002;17.846;2022-10-26T01:34:05;1.93;;;0.60;;
7273;SDS011;3678;60.002;17.846;2022-10-26T01:36:36;0.73;;;0.63;;
7273;SDS011;3678;60.002;17.846;2022-10-26T01:39:08;0.70;;;0.50;;
7273;SDS011;3678;60.002;17.846;2022-10-26T01:41:37;0.73;;;0.50;;
7273;SDS011;3678;60.002;17.846;2022-10-26T01:44:09;0.50;;;0.50;;
7273;SDS011;3678;60.002;17.846;2022-10-26T01:46:40;1.47;;;0.70;;
7273;SDS011;3678;60.002;17.846;2022-10-26T01:49:09;0.90;;;0.60;;
7273;SDS011;3678;60.002;17.846;2022-10-26T01:51:37;0.50;;;0.50;;
7273;SDS011;3678;60.002;17.846;2022-10-26T01:54:06;0.57;;;0.57;;
7273;SDS011;3678;60.002;17.846;2022-10-26T01:56:33;1.43;;;0.70;;
7273;SDS011;3678;60.002;17.846;2022-10-26T01:59:06;0.63;;;0.60;;
7273;SDS011;3678;60.002;17.846;2022-10-26T02:01:58;1.08;;;0.60;;
7273;SDS011;3678;60.002;17.846;2022-10-26T02:04:32;0.60;;;0.60;;
7273;SDS011;3678;60.002;17.846;2022-10-26T02:07:02;0.50;;;0.50;;
7273;SDS011;3678;60.002;17.846;2022-10-26T02:09:34;0.70;;;0.67;;
7273;SDS011;3678;60.002;17.846;2022-10-26T02:12:05;0.83;;;0.70;;
7273;SDS011;3678;60.002;17.846;2022-10-26T02:14:38;0.60;;;0.60;;
7273;SDS011;3678;60.002;17.846;2022-10-26T02:17:10;0.60;;;0.60;;
7273;SDS011;3678;60.002;17.846;2022-10-26T02:19:41;1.23;;;0.50;;
7273;SDS011;3678;60.002;17.846;2022-10-26T02:22:12;1.37;;;0.60;;
7273;SDS011;3678;60.002;17.846;2022-10-26T02:24:41;0.50;;;0.50;;
7273;SDS011;3678;60.002;17.846;2022-10-26T02:27:14;0.40;;;0.40;;
7273;SDS011;3678;60.002;17.846;2022-10-26T02:29:42;0.60;;;0.60;;
7273;SDS011;3678;60.002;17.846;2022-10-26T02:32:11;1.20;;;0.50;;
7273;SDS011;3678;60.002;17.846;2022-10-26T02:34:39;0.60;;;0.60;;
7273;SDS011;3678;60.002;17.846;2022-10-26T02:37:09;4.07;;;0.53;;
7273;SDS011;3678;60.002;17.846;2022-10-26T02:39:38;0.60;;;0.60;;
7273;SDS011;3678;60.002;17.846;2022-10-26T02:42:06;0.73;;;0.60;;
7273;SDS011;3678;60.002;17.846;2022-10-26T02:44:35;1.90;;;0.73;;
7273;SDS011;3678;60.002;17.846;2022-10-26T02:47:03;0.40;;;0.40;;
7273;SDS011;3678;60.002;17.846;2022-10-26T02:49:32;1.37;;;0.50;;
7273;SDS011;3678;60.002;17.846;2022-10-26T02:52:00;0.40;;;0.40;;
7273;SDS011;3678;60.002;17.846;2022-10-26T02:54:30;0.53;;;0.53;;
7273;SDS011;3678;60.002;17.846;2022-10-26T02:56:59;0.63;;;0.60;;
7273;SDS011;3678;60.002;17.846;2022-10-26T02:59:29;0.63;;;0.63;;
7273;SDS011;3678;60.002;17.846;2022-10-26T03:01:56;1.17;;;0.70;;
7273;SDS011;3678;60.002;17.846;2022-10-26T03:04:27;0.53;;;0.50;;
7273;SDS011;3678;60.002;17.846;2022-10-26T03:06:56;1.33;;;0.67;;
7273;SDS011;3678;60.002;17.846;2022-10-26T03:09:23;0.70;;;0.67;;
7273;SDS011;3678;60.002;17.846;2022-10-26T03:11:51;1.57;;;0.73;;
7273;SDS011;3678;60.002;17.846;2022-10-26T03:14:18;0.90;;;0.70;;
7273;SDS011;3678;60.002;17.846;2022-10-26T03:16:45;1.20;;;0.90;;
7273;SDS011;3678;60.002;17.846;2022-10-26T03:19:12;2.67;;;0.87;;
7273;SDS011;3678;60.002;17.846;2022-10-26T03:21:40;0.70;;;0.70;;
7273;SDS011;3678;60.002;17.846;2022-10-26T03:24:08;1.00;;;0.70;;
7273;SDS011;3678;60.002;17.846;2022-10-26T03:26:36;1.33;;;0.83;;
7273;SDS011;3678;60.002;17.846;2022-10-26T03:29:03;0.97;;;0.70;;
7273;SDS011;3678;60.002;17.846;2022-10-26T03:31:30;1.50;;;1.00;;
7273;SDS011;3678;60.002;17.846;2022-10-26T03:33:57;1.23;;;0.90;;
7273;SDS011;3678;60.002;17.846;2022-10-26T03:36:24;1.17;;;1.00;;
7273;SDS011;3678;60.002;17.846;2022-10-26T03:38:52;2.43;;;0.93;;
7273;SDS011;3678;60.002;17.846;2022-10-26T03:41:20;1.87;;;0.80;;
7273;SDS011;3678;60.002;17.846;2022-10-26T03:43:47;1.53;;;0.77;;
7273;SDS011;3678;60.002;17.846;2022-10-26T03:46:14;0.80;;;0.80;;
7273;SDS011;3678;60.002;17.846;2022-10-26T03:48:42;0.80;;;0.80;;
7273;SDS011;3678;60.002;17.846;2022-10-26T03:51:09;1.60;;;0.97;;
7273;SDS011;3678;60.002;17.846;2022-10-26T03:53:36;0.77;;;0.67;;
7273;SDS011;3678;60.002;17.846;2022-10-26T03:56:03;1.10;;;0.90;;
7273;SDS011;3678;60.002;17.846;2022-10-26T03:58:32;1.00;;;0.80;;
7273;SDS011;3678;60.002;17.846;2022-10-26T04:00:59;0.87;;;0.80;;
7273;SDS011;3678;60.002;17.846;2022-10-26T04:03:26;0.70;;;0.70;;
7273;SDS011;3678;60.002;17.846;2022-10-26T04:05:54;1.43;;;0.70;;
7273;SDS011;3678;60.002;17.846;2022-10-26T04:08:22;0.80;;;0.80;;
7273;SDS011;3678;60.002;17.846;2022-10-26T04:10:49;1.43;;;0.90;;
7273;SDS011;3678;60.002;17.846;2022-10-26T04:13:16;0.90;;;0.90;;
7273;SDS011;3678;60.002;17.846;2022-10-26T04:15:45;1.60;;;1.03;;
7273;SDS011;3678;60.002;17.846;2022-10-26T04:18:12;1.20;;;1.10;;
7273;SDS011;3678;60.002;17.846;2022-10-26T04:20:39;1.03;;;0.93;;
7273;SDS011;3678;60.002;17.846;2022-10-26T04:23:09;0.80;;;0.80;;
7273;SDS011;3678;60.002;17.846;2022-10-26T04:25:37;1.17;;;0.90;;
7273;SDS011;3678;60.002;17.846;2022-10-26T04:28:04;1.83;;;1.10;;
7273;SDS011;3678;60.002;17.846;2022-10-26T04:30:32;1.10;;;1.00;;
7273;SDS011;3678;60.002;17.846;2022-10-26T04:33:01;1.20;;;1.10;;
7273;SDS011;3678;60.002;17.846;2022-10-26T04:35:29;1.43;;;1.20;;
7273;SDS011;3678;60.002;17.846;2022-10-26T04:37:56;1.10;;;1.00;;
7273;SDS011;3678;60.002;17.846;2022-10-26T04:40:24;1.57;;;1.47;;
7273;SDS011;3678;60.002;17.846;2022-10-26T04:42:51;1.30;;;1.20;;
7273;SDS011;3678;60.002;17.846;2022-10-26T04:45:18;2.05;;;1.70;;
7273;SDS011;3678;60.002;17.846;2022-10-26T04:47:45;2.07;;;1.60;;
7273;SDS011;3678;60.002;17.846;2022-10-26T04:50:14;1.90;;;1.70;;
7273;SDS011;3678;60.002;17.846;2022-10-26T04:52:41;3.20;;;1.93;;
7273;SDS011;3678;60.002;17.846;2022-10-26T04:55:09;2.83;;;2.00;;
7273;SDS011;3678;60.002;17.846;2022-10-26T04:57:36;3.67;;;2.47;;
7273;SDS011;3678;60.002;17.846;2022-10-26T05:00:03;2.40;;;1.95;;
7273;SDS011;3678;60.002;17.846;2022-10-26T05:02:31;2.17;;;1.87;;
7273;SDS011;3678;60.002;17.846;2022-10-26T05:04:58;3.10;;;1.80;;
7273;SDS011;3678;60.002;17.846;2022-10-26T05:09:55;2.30;;;2.10;;
7273;SDS011;3678;60.002;17.846;2022-10-26T05:12:22;1.70;;;1.60;;
7273;SDS011;3678;60.002;17.846;2022-10-26T05:14:49;2.50;;;2.00;;
7273;SDS011;3678;60.002;17.846;2022-10-26T05:17:16;2.40;;;1.53;;
7273;SDS011;3678;60.002;17.846;2022-10-26T05:19:43;3.73;;;1.80;;
7273;SDS011;3678;60.002;17.846;2022-10-26T05:22:16;1.83;;;1.60;;
7273;SDS011;3678;60.002;17.846;2022-10-26T05:24:44;1.77;;;1.50;;
7273;SDS011;3678;60.002;17.846;2022-10-26T05:27:12;1.93;;;1.60;;
7273;SDS011;3678;60.002;17.846;2022-10-26T05:29:39;1.93;;;1.73;;
7273;SDS011;3678;60.002;17.846;2022-10-26T05:32:07;1.97;;;1.47;;
7273;SDS011;3678;60.002;17.846;2022-10-26T05:34:34;2.70;;;1.70;;
7273;SDS011;3678;60.002;17.846;2022-10-26T05:37:01;1.97;;;1.70;;
7273;SDS011;3678;60.002;17.846;2022-10-26T05:39:28;2.00;;;1.50;;
7273;SDS011;3678;60.002;17.846;2022-10-26T05:41:55;3.53;;;1.47;;
7273;SDS011;3678;60.002;17.846;2022-10-26T05:44:24;1.70;;;1.60;;
7273;SDS011;3678;60.002;17.846;2022-10-26T05:46:51;1.80;;;1.70;;
7273;SDS011;3678;60.002;17.846;2022-10-26T05:49:18;1.93;;;1.60;;
7273;SDS011;3678;60.002;17.846;2022-10-26T05:51:45;2.57;;;1.70;;
7273;SDS011;3678;60.002;17.846;2022-10-26T05:54:12;2.63;;;1.63;;
7273;SDS011;3678;60.002;17.846;2022-10-26T05:56:40;2.43;;;2.03;;
7273;SDS011;3678;60.002;17.846;2022-10-26T05:59:09;2.30;;;1.87;;
7273;SDS011;3678;60.002;17.846;2022-10-26T06:01:43;2.50;;;1.90;;
7273;SDS011;3678;60.002;17.846;2022-10-26T06:04:16;2.40;;;2.00;;
7273;SDS011;3678;60.002;17.846;2022-10-26T06:06:45;2.60;;;1.97;;
7273;SDS011;3678;60.002;17.846;2022-10-26T06:09:13;2.73;;;2.00;;
7273;SDS011;3678;60.002;17.846;2022-10-26T06:11:40;3.47;;;2.30;;
7273;SDS011;3678;60.002;17.846;2022-10-26T06:14:08;2.67;;;2.10;;
7273;SDS011;3678;60.002;17.846;2022-10-26T06:16:37;3.47;;;2.10;;
7273;SDS011;3678;60.002;17.846;2022-10-26T06:19:11;3.27;;;2.03;;
7273;SDS011;3678;60.002;17.846;2022-10-26T06:21:46;2.33;;;2.10;;
7273;SDS011;3678;60.002;17.846;2022-10-26T06:24:20;2.33;;;2.13;;
7273;SDS011;3678;60.002;17.846;2022-10-26T06:26:54;2.20;;;2.00;;
7273;SDS011;3678;60.002;17.846;2022-10-26T06:29:27;3.43;;;2.23;;
7273;SDS011;3678;60.002;17.846;2022-10-26T06:31:58;4.07;;;2.28;;
7273;SDS011;3678;60.002;17.846;2022-10-26T06:34:27;2.80;;;2.10;;
7273;SDS011;3678;60.002;17.846;2022-10-26T06:36:55;4.27;;;2.17;;
7273;SDS011;3678;60.002;17.846;2022-10-26T06:39:23;3.07;;;1.90;;
7273;SDS011;3678;60.002;17.846;2022-10-26T06:41:51;2.10;;;1.83;;
7273;SDS011;3678;60.002;17.846;2022-10-26T06:44:20;5.57;;;2.13;;
7273;SDS011;3678;60.002;17.846;2022-10-26T06:46:50;2.20;;;1.70;;
7273;SDS011;3678;60.002;17.846;2022-10-26T06:49:20;2.83;;;2.00;;
7273;SDS011;3678;60.002;17.846;2022-10-26T06:51:52;2.57;;;2.00;;
7273;SDS011;3678;60.002;17.846;2022-10-26T06:54:22;4.00;;;2.07;;
7273;SDS011;3678;60.002;17.846;2022-10-26T06:56:51;2.53;;;2.27;;
7273;SDS011;3678;60.002;17.846;2022-10-26T06:59:22;2.60;;;1.90;;
7273;SDS011;3678;60.002;17.846;2022-10-26T07:01:54;2.83;;;1.90;;
7273;SDS011;3678;60.002;17.846;2022-10-26T07:04:21;2.60;;;1.67;;
7273;SDS011;3678;60.002;17.846;2022-10-26T07:06:48;2.13;;;1.70;;
7273;SDS011;3678;60.002;17.846;2022-10-26T07:09:17;2.63;;;1.87;;
7273;SDS011;3678;60.002;17.846;2022-10-26T07:11:44;1.90;;;1.50;;
7273;SDS011;3678;60.002;17.846;2022-10-26T07:14:11;3.33;;;1.70;;
7273;SDS011;3678;60.002;17.846;2022-10-26T07:16:38;3.57;;;1.77;;
7273;SDS011;3678;60.002;17.846;2022-10-26T07:19:05;2.03;;;1.50;;
7273;SDS011;3678;60.002;17.846;2022-10-26T07:21:33;2.37;;;1.30;;
7273;SDS011;3678;60.002;17.846;2022-10-26T07:24:00;1.60;;;1.37;;
7273;SDS011;3678;60.002;17.846;2022-10-26T07:26:28;1.77;;;1.37;;
7273;SDS011;3678;60.002;17.846;2022-10-26T07:28:56;1.93;;;1.50;;
7273;SDS011;3678;60.002;17.846;2022-10-26T07:31:23;1.60;;;1.47;;
7273;SDS011;3678;60.002;17.846;2022-10-26T07:33:51;1.47;;;1.10;;
7273;SDS011;3678;60.002;17.846;2022-10-26T07:36:19;2.60;;;1.10;;
7273;SDS011;3678;60.002;17.846;2022-10-26T07:38:46;2.60;;;1.00;;
7273;SDS011;3678;60.002;17.846;2022-10-26T07:41:15;3.03;;;1.13;;
7273;SDS011;3678;60.002;17.846;2022-10-26T07:43:43;1.87;;;1.00;;
7273;SDS011;3678;60.002;17.846;2022-10-26T07:46:14;3.63;;;1.30;;
7273;SDS011;3678;60.002;17.846;2022-10-26T07:48:44;1.30;;;1.20;;
7273;SDS011;3678;60.002;17.846;2022-10-26T07:51:12;1.00;;;0.90;;
7273;SDS011;3678;60.002;17.846;2022-10-26T07:53:39;1.30;;;0.90;;
7273;SDS011;3678;60.002;17.846;2022-10-26T07:56:07;0.90;;;0.80;;
7273;SDS011;3678;60.002;17.846;2022-10-26T07:58:34;1.87;;;1.10;;
7273;SDS011;3678;60.002;17.846;2022-10-26T08:01:06;1.10;;;1.00;;
7273;SDS011;3678;60.002;17.846;2022-10-26T08:03:33;0.97;;;0.87;;
7273;SDS011;3678;60.002;17.846;2022-10-26T08:06:00;3.45;;;1.15;;
7273;SDS011;3678;60.002;17.846;2022-10-26T08:08:29;1.20;;;1.00;;
7273;SDS011;3678;60.002;17.846;2022-10-26T08:10:56;1.50;;;0.80;;
7273;SDS011;3678;60.002;17.846;2022-10-26T08:13:24;0.80;;;0.80;;
7273;SDS011;3678;60.002;17.846;2022-10-26T08:15:55;1.93;;;1.10;;
7273;SDS011;3678;60.002;17.846;2022-10-26T08:18:24;0.97;;;0.80;;
7273;SDS011;3678;60.002;17.846;2022-10-26T08:20:51;1.87;;;0.97;;
7273;SDS011;3678;60.002;17.846;2022-10-26T08:23:18;1.17;;;0.80;;
7273;SDS011;3678;60.002;17.846;2022-10-26T08:25:45;1.50;;;0.80;;
7273;SDS011;3678;60.002;17.846;2022-10-26T08:28:13;1.10;;;0.90;;
7273;SDS011;3678;60.002;17.846;2022-10-26T08:30:40;2.13;;;1.23;;
7273;SDS011;3678;60.002;17.846;2022-10-26T08:33:08;0.90;;;0.70;;
7273;SDS011;3678;60.002;17.846;2022-10-26T08:35:37;1.00;;;0.90;;
7273;SDS011;3678;60.002;17.846;2022-10-26T08:38:04;0.93;;;0.77;;
7273;SDS011;3678;60.002;17.846;2022-10-26T08:40:33;0.90;;;0.80;;
7273;SDS011;3678;60.002;17.846;2022-10-26T08:43:02;0.70;;;0.70;;
7273;SDS011;3678;60.002;17.846;2022-10-26T08:45:32;0.80;;;0.80;;
7273;SDS011;3678;60.002;17.846;2022-10-26T08:48:04;1.07;;;0.90;;
7273;SDS011;3678;60.002;17.846;2022-10-26T08:50:32;1.03;;;0.80;;
7273;SDS011;3678;60.002;17.846;2022-10-26T08:53:05;1.13;;;0.87;;
7273;SDS011;3678;60.002;17.846;2022-10-26T08:55:37;0.70;;;0.70;;
7273;SDS011;3678;60.002;17.846;2022-10-26T08:58:06;3.17;;;0.90;;
7273;SDS011;3678;60.002;17.846;2022-10-26T09:00:37;1.00;;;0.65;;
7273;SDS011;3678;60.002;17.846;2022-10-26T09:03:07;1.77;;;1.50;;
7273;SDS011;3678;60.002;17.846;2022-10-26T09:05:39;0.70;;;0.70;;
7273;SDS011;3678;60.002;17.846;2022-10-26T09:08:10;1.97;;;0.80;;
7273;SDS011;3678;60.002;17.846;2022-10-26T09:10:39;0.60;;;0.60;;
7273;SDS011;3678;60.002;17.846;2022-10-26T09:13:10;0.80;;;0.77;;
7273;SDS011;3678;60.002;17.846;2022-10-26T09:15:44;0.80;;;0.80;;
7273;SDS011;3678;60.002;17.846;2022-10-26T09:18:18;0.90;;;0.83;;
7273;SDS011;3678;60.002;17.846;2022-10-26T09:20:53;0.77;;;0.77;;
7273;SDS011;3678;60.002;17.846;2022-10-26T09:23:30;0.67;;;0.67;;
7273;SDS011;3678;60.002;17.846;2022-10-26T09:26:03;0.83;;;0.80;;
7273;SDS011;3678;60.002;17.846;2022-10-26T09:28:36;0.90;;;0.90;;
7273;SDS011;3678;60.002;17.846;2022-10-26T09:31:03;5.97;;;1.93;;
7273;SDS011;3678;60.002;17.846;2022-10-26T09:33:33;1.00;;;0.80;;
7273;SDS011;3678;60.002;17.846;2022-10-26T09:36:02;1.10;;;1.00;;
7273;SDS011;3678;60.002;17.846;2022-10-26T09:38:33;1.37;;;1.03;;
7273;SDS011;3678;60.002;17.846;2022-10-26T09:41:03;1.20;;;1.10;;
7273;SDS011;3678;60.002;17.846;2022-10-26T09:43:32;2.73;;;1.00;;
7273;SDS011;3678;60.002;17.846;2022-10-26T09:46:02;1.23;;;0.90;;
7273;SDS011;3678;60.002;17.846;2022-10-26T09:48:30;1.17;;;1.07;;
7273;SDS011;3678;60.002;17.846;2022-10-26T09:50:59;2.03;;;0.90;;
7273;SDS011;3678;60.002;17.846;2022-10-26T09:53:26;1.00;;;0.90;;
7273;SDS011;3678;60.002;17.846;2022-10-26T09:55:58;1.00;;;0.90;;
7273;SDS011;3678;60.002;17.846;2022-10-26T09:58:27;1.17;;;0.90;;
7273;SDS011;3678;60.002;17.846;2022-10-26T10:00:55;0.93;;;0.90;;
7273;SDS011;3678;60.002;17.846;2022-10-26T10:03:24;2.37;;;1.13;;
7273;SDS011;3678;60.002;17.846;2022-10-26T10:05:51;0.93;;;0.80;;
7273;SDS011;3678;60.002;17.846;2022-10-26T10:08:19;0.95;;;0.85;;
7273;SDS011;3678;60.002;17.846;2022-10-26T10:11:07;1.27;;;0.90;;
7273;SDS011;3678;60.002;17.846;2022-10-26T10:13:35;1.60;;;0.70;;
7273;SDS011;3678;60.002;17.846;2022-10-26T10:16:04;0.70;;;0.70;;
7273;SDS011;3678;60.002;17.846;2022-10-26T10:18:31;0.90;;;0.80;;
7273;SDS011;3678;60.002;17.846;2022-10-26T10:20:59;0.80;;;0.77;;
7273;SDS011;3678;60.002;17.846;2022-10-26T10:23:27;1.50;;;1.20;;
7273;SDS011;3678;60.002;17.846;2022-10-26T10:26:00;1.53;;;1.27;;
7273;SDS011;3678;60.002;17.846;2022-10-26T10:28:28;2.80;;;1.10;;
7273;SDS011;3678;60.002;17.846;2022-10-26T10:30:56;1.40;;;1.30;;
7273;SDS011;3678;60.002;17.846;2022-10-26T10:33:31;2.23;;;1.20;;
7273;SDS011;3678;60.002;17.846;2022-10-26T10:35:59;2.60;;;1.10;;
7273;SDS011;3678;60.002;17.846;2022-10-26T10:38:26;1.40;;;1.30;;
7273;SDS011;3678;60.002;17.846;2022-10-26T10:40:54;1.87;;;1.10;;
7273;SDS011;3678;60.002;17.846;2022-10-26T10:43:23;1.20;;;1.00;;
7273;SDS011;3678;60.002;17.846;2022-10-26T10:45:52;1.10;;;0.80;;
7273;SDS011;3678;60.002;17.846;2022-10-26T10:48:20;0.83;;;0.80;;
7273;SDS011;3678;60.002;17.846;2022-10-26T10:50:52;0.97;;;0.80;;
7273;SDS011;3678;60.002;17.846;2022-10-26T10:53:21;2.07;;;1.63;;
7273;SDS011;3678;60.002;17.846;2022-10-26T10:56:05;1.30;;;1.20;;
7273;SDS011;3678;60.002;17.846;2022-10-26T10:58:36;1.23;;;1.13;;
7273;SDS011;3678;60.002;17.846;2022-10-26T11:01:06;1.73;;;1.00;;
7273;SDS011;3678;60.002;17.846;2022-10-26T11:03:39;1.90;;;1.30;;
7273;SDS011;3678;60.002;17.846;2022-10-26T11:06:12;0.90;;;0.83;;
7273;SDS011;3678;60.002;17.846;2022-10-26T11:08:43;1.60;;;0.80;;
7273;SDS011;3678;60.002;17.846;2022-10-26T11:11:12;1.83;;;0.80;;
7273;SDS011;3678;60.002;17.846;2022-10-26T11:13:43;1.00;;;0.90;;
7273;SDS011;3678;60.002;17.846;2022-10-26T11:16:14;0.93;;;0.83;;
7273;SDS011;3678;60.002;17.846;2022-10-26T11:18:43;1.73;;;0.80;;
7273;SDS011;3678;60.002;17.846;2022-10-26T11:21:14;1.73;;;0.73;;
7273;SDS011;3678;60.002;17.846;2022-10-26T11:23:44;1.00;;;0.80;;
7273;SDS011;3678;60.002;17.846;2022-10-26T11:26:13;0.90;;;0.87;;
7273;SDS011;3678;60.002;17.846;2022-10-26T11:28:46;1.17;;;0.87;;
7273;SDS011;3678;60.002;17.846;2022-10-26T11:31:16;1.53;;;0.90;;
7273;SDS011;3678;60.002;17.846;2022-10-26T11:33:47;1.53;;;1.00;;
7273;SDS011;3678;60.002;17.846;2022-10-26T11:36:17;0.70;;;0.70;;
7273;SDS011;3678;60.002;17.846;2022-10-26T11:38:47;1.97;;;0.80;;
7273;SDS011;3678;60.002;17.846;2022-10-26T11:41:18;2.63;;;0.80;;
7273;SDS011;3678;60.002;17.846;2022-10-26T11:43:49;0.80;;;0.60;;
7273;SDS011;3678;60.002;17.846;2022-10-26T11:46:20;0.93;;;0.80;;
7273;SDS011;3678;60.002;17.846;2022-10-26T11:48:50;0.80;;;0.70;;
7273;SDS011;3678;60.002;17.846;2022-10-26T11:51:19;0.90;;;0.60;;
7273;SDS011;3678;60.002;17.846;2022-10-26T11:53:48;0.60;;;0.60;;
7273;SDS011;3678;60.002;17.846;2022-10-26T11:56:22;0.60;;;0.60;;
7273;SDS011;3678;60.002;17.846;2022-10-26T11:58:52;0.50;;;0.50;;
7273;SDS011;3678;60.002;17.846;2022-10-26T12:01:20;0.67;;;0.60;;
7273;SDS011;3678;60.002;17.846;2022-10-26T12:03:48;0.63;;;0.60;;
7273;SDS011;3678;60.002;17.846;2022-10-26T12:06:17;0.70;;;0.60;;
7273;SDS011;3678;60.002;17.846;2022-10-26T12:08:46;0.60;;;0.60;;
7273;SDS011;3678;60.002;17.846;2022-10-26T12:11:20;0.60;;;0.60;;
7273;SDS011;3678;60.002;17.846;2022-10-26T12:13:53;0.87;;;0.80;;
7273;SDS011;3678;60.002;17.846;2022-10-26T12:16:23;1.73;;;1.10;;
7273;SDS011;3678;60.002;17.846;2022-10-26T12:18:56;0.70;;;0.60;;
7273;SDS011;3678;60.002;17.846;2022-10-26T12:21:25;2.00;;;1.10;;
7273;SDS011;3678;60.002;17.846;2022-10-26T12:23:54;0.77;;;0.77;;
7273;SDS011;3678;60.002;17.846;2022-10-26T12:29:23;1.37;;;0.60;;
7273;SDS011;3678;60.002;17.846;2022-10-26T12:31:51;0.67;;;0.63;;
7273;SDS011;3678;60.002;17.846;2022-10-26T12:34:21;0.60;;;0.60;;
7273;SDS011;3678;60.002;17.846;2022-10-26T12:36:49;1.00;;;0.80;;
7273;SDS011;3678;60.002;17.846;2022-10-26T12:39:36;1.30;;;0.90;;
7273;SDS011;3678;60.002;17.846;2022-10-26T12:42:08;0.60;;;0.60;;
7273;SDS011;3678;60.002;17.846;2022-10-26T12:44:39;0.87;;;0.70;;
7273;SDS011;3678;60.002;17.846;2022-10-26T12:50:18;0.70;;;0.60;;
7273;SDS011;3678;60.002;17.846;2022-10-26T12:52:49;0.90;;;0.80;;
7273;SDS011;3678;60.002;17.846;2022-10-26T12:58:11;1.10;;;0.80;;
7273;SDS011;3678;60.002;17.846;2022-10-26T13:00:43;1.23;;;0.70;;
7273;SDS011;3678;60.002;17.846;2022-10-26T13:03:15;0.60;;;0.60;;
7273;SDS011;3678;60.002;17.846;2022-10-26T13:05:56;2.27;;;0.70;;
7273;SDS011;3678;60.002;17.846;2022-10-26T13:08:24;0.60;;;0.60;;
7273;SDS011;3678;60.002;17.846;2022-10-26T13:10:59;0.90;;;0.60;;
7273;SDS011;3678;60.002;17.846;2022-10-26T13:13:27;0.60;;;0.60;;
7273;SDS011;3678;60.002;17.846;2022-10-26T13:15:57;0.60;;;0.60;;
7273;SDS011;3678;60.002;17.846;2022-10-26T13:18:25;0.77;;;0.70;;
7273;SDS011;3678;60.002;17.846;2022-10-26T13:20:53;0.60;;;0.60;;
7273;SDS011;3678;60.002;17.846;2022-10-26T13:23:25;0.50;;;0.50;;
7273;SDS011;3678;60.002;17.846;2022-10-26T13:26:04;0.60;;;0.60;;
7273;SDS011;3678;60.002;17.846;2022-10-26T13:28:33;1.83;;;0.60;;
7273;SDS011;3678;60.002;17.846;2022-10-26T13:31:01;0.50;;;0.50;;
7273;SDS011;3678;60.002;17.846;2022-10-26T13:33:30;0.50;;;0.50;;
7273;SDS011;3678;60.002;17.846;2022-10-26T13:36:05;0.50;;;0.50;;
7273;SDS011;3678;60.002;17.846;2022-10-26T13:38:37;3.33;;;0.70;;
7273;SDS011;3678;60.002;17.846;2022-10-26T13:41:05;0.60;;;0.60;;
7273;SDS011;3678;60.002;17.846;2022-10-26T13:43:33;1.10;;;0.87;;
7273;SDS011;3678;60.002;17.846;2022-10-26T13:46:04;1.50;;;0.63;;
7273;SDS011;3678;60.002;17.846;2022-10-26T13:48:40;1.23;;;0.60;;
7273;SDS011;3678;60.002;17.846;2022-10-26T13:51:10;0.77;;;0.60;;
7273;SDS011;3678;60.002;17.846;2022-10-26T13:53:39;1.80;;;0.60;;
7273;SDS011;3678;60.002;17.846;2022-10-26T13:56:10;2.40;;;0.80;;
7273;SDS011;3678;60.002;17.846;2022-10-26T13:58:40;0.70;;;0.60;;
7273;SDS011;3678;60.002;17.846;2022-10-26T14:01:24;0.60;;;0.60;;
7273;SDS011;3678;60.002;17.846;2022-10-26T14:03:52;0.67;;;0.67;;
7273;SDS011;3678;60.002;17.846;2022-10-26T14:06:21;0.60;;;0.53;;
7273;SDS011;3678;60.002;17.846;2022-10-26T14:08:50;0.70;;;0.60;;
7273;SDS011;3678;60.002;17.846;2022-10-26T14:11:19;0.70;;;0.60;;
7273;SDS011;3678;60.002;17.846;2022-10-26T14:13:47;0.50;;;0.50;;
7273;SDS011;3678;60.002;17.846;2022-10-26T14:16:17;1.30;;;0.70;;
7273;SDS011;3678;60.002;17.846;2022-10-26T14:18:45;0.60;;;0.60;;
7273;SDS011;3678;60.002;17.846;2022-10-26T14:21:13;0.70;;;0.70;;
7273;SDS011;3678;60.002;17.846;2022-10-26T14:23:44;0.80;;;0.70;;
7273;SDS011;3678;60.002;17.846;2022-10-26T14:26:17;0.50;;;0.50;;
7273;SDS011;3678;60.002;17.846;2022-10-26T14:28:46;1.27;;;0.50;;
7273;SDS011;3678;60.002;17.846;2022-10-26T14:31:20;0.87;;;0.60;;
7273;SDS011;3678;60.002;17.846;2022-10-26T14:33:47;1.43;;;0.60;;
7273;SDS011;3678;60.002;17.846;2022-10-26T14:36:14;0.50;;;0.50;;
7273;SDS011;3678;60.002;17.846;2022-10-26T14:38:43;1.10;;;0.63;;
7273;SDS011;3678;60.002;17.846;2022-10-26T14:41:12;0.50;;;0.50;;
7273;SDS011;3678;60.002;17.846;2022-10-26T14:43:40;1.80;;;0.80;;
7273;SDS011;3678;60.002;17.846;2022-10-26T14:46:10;1.00;;;1.00;;
7273;SDS011;3678;60.002;17.846;2022-10-26T14:48:40;0.70;;;0.60;;
7273;SDS011;3678;60.002;17.846;2022-10-26T14:51:10;0.80;;;0.70;;
7273;SDS011;3678;60.002;17.846;2022-10-26T14:53:46;1.53;;;0.60;;
7273;SDS011;3678;60.002;17.846;2022-10-26T14:56:18;0.70;;;0.70;;
7273;SDS011;3678;60.002;17.846;2022-10-26T14:58:46;0.60;;;0.60;;
7273;SDS011;3678;60.002;17.846;2022-10-26T15:01:14;1.15;;;0.50;;
7273;SDS011;3678;60.002;17.846;2022-10-26T15:03:43;1.40;;;0.77;;
7273;SDS011;3678;60.002;17.846;2022-10-26T15:06:29;0.60;;;0.60;;
7273;SDS011;3678;60.002;17.846;2022-10-26T15:08:58;0.70;;;0.70;;
7273;SDS011;3678;60.002;17.846;2022-10-26T15:11:28;0.60;;;0.60;;
7273;SDS011;3678;60.002;17.846;2022-10-26T15:13:55;0.73;;;0.70;;
7273;SDS011;3678;60.002;17.846;2022-10-26T15:16:23;0.77;;;0.77;;
7273;SDS011;3678;60.002;17.846;2022-10-26T15:18:53;1.10;;;1.00;;
7273;SDS011;3678;60.002;17.846;2022-10-26T15:21:22;0.80;;;0.60;;
7273;SDS011;3678;60.002;17.846;2022-10-26T15:23:50;1.30;;;0.90;;
7273;SDS011;3678;60.002;17.846;2022-10-26T15:26:17;1.13;;;0.70;;
7273;SDS011;3678;60.002;17.846;2022-10-26T15:28:45;0.93;;;0.70;;